Portada
METAR-TAF:

METAR-TAF

Aeropuertos :

Aeropuerto Internacional de Bandar Abbás

Bandar Abbas, Irán

latitud: 27-13N, longitud: 056-22E, altitud: 10 m

Observación

El informe se hizo hace 1 hora y 4 minutos, a las 23:00 UTC
Viento 2 kt con dirección variable
Temperatura 11°C
Humedad 94%
Presión 1018 hPa
Visibilidad 10 km o más
sin nubes por debajo de 1500 m y sin presencia de cumulonimbus.

METAR: OIKB 242300Z VRB02KT CAVOK 11/10 Q1017 A3006

Hora: 03:34 (00:04 UTC)

Pronóstico

El informe se hizo hace 1 hora y 4 minutos, a las 23:00 UTC
Pronóstico válido del 25 a las 00 UTC al 26 a las 06 UTC
Viento 6 kt del suroeste
Visibilidad: 7000 m
Escasas nubes a una altura de 3000 ft
Probabilidad 40%
del 25 a las 00 UTC al 25 a las 06 UTC
Visibilidad: 3000 m

TAF: OIKB 242300Z 2500/2606 23006KT 7000 FEW030 PROB40 2500/2506 3000 BR/HZ

Observaciones y pronósticos meteorológicos de más de 4000 aeropuertos (mensajes METAR y TAF).

Los puntos amarillos y rojos representan las estaciones disponibles.

Ponga el ratón en el punto deseado para ver el nombre de la estación.

Haga clic para ver las observaciones y los pronósticos meteorológicos.

Para cambiar el mapa : haga clic en los botones verdes con una cruz de color negro para hacer un zoom, en el botón verde con un guión para alejar o en las flechas verdes para mapas adyacentes.


METAR-TAF: